Fayetteville, NY (13066)

12:46 PM EDT on April 28, 2015 (GMT -0400)
Hale Estates | | Change Station
CLOSE
Current Station
Personal Weather Station
Location: Manlius, NY
Elevation: 607 ft
Nearby Weather Stations

Elev 607 ft 42.99 °N, 75.99 °W | Updated 14 seconds ago

Partly Cloudy
Partly Cloudy
57.0 °F
Feels Like 57.0 °F
N
6.5
Wind Variable Wind from West
Gusts 9.8 mph

Today
High -- | Low -- °F
--% Chance of Precip.
Yesterday
High -- | Low -- °F
Precip. -- in
6:02 AM 8:01 PM
Waxing Gibbous, 75% visible
Pressure 29.92 in
Visibility 10.0 miles
Clouds Scattered Clouds 6500 ft
Dew Point 17 °F
Humidity 21%
Rainfall 0.00 in
Snow Depth Not available.
UV 7 out of 12
Pollen 9.40 out of 12
Air Quality Not available.
Flu Activity Widespread
METAR KSYR 281554Z 28010G16KT 10SM SCT065 14/06 A2993 RMK AO2 SLP132 SCT V BKN T01440056

More Conditions Fewer Conditions

Pressure 29.92 in
Visibility 10.0 miles
Clouds Scattered Clouds 6500 ft
Dew Point 17 °F
Humidity 21%
Rainfall 0.00 in
Snow Depth Not available.
UV 7 out of 12
Pollen 9.40 out of 12
Air Quality Not available.
Flu Activity Widespread
METAR KSYR 281554Z 28010G16KT 10SM SCT065 14/06 A2993 RMK AO2 SLP132 SCT V BKN T01440056

More Conditions Fewer Conditions

10-Day Weather Forecast

Almanac

Astronomy

Apr. 28, 2015 Rise Set
Actual Time
Civil Twilight
Nautical Twilight
Astronomical Twilight
Moon
Length of Visible Light
Length of Day
Tomorrow will be .
, % of the Moon is Illuminated

Today's Extremes

State Highs State Lows

Community

WunderPhotos

Upload Photos

1,817,699 photos uploaded!

WunderBlogs® & News

Nearby

Air Quality

  Air Quality AQ Index Pollutant
Not available.

Snow Depth

Station Depth Elevation

Earthquake Activity

City Distance Mag. Time & Date
Minimum magnitude displayed is 2.5.

Coastal Water Temperatures

Place Temperature

Stations

Nearby Weather Stations

Station Location Temp. Windchill Dew Point Humidity Wind Precip. Elev Updated Type